createdAt,value
2023-12-10T00:02:04.068Z,4.33
2023-12-10T00:04:33.758Z,3.80
2023-12-10T00:07:01.964Z,3.53
2023-12-10T00:09:30.167Z,3.87
2023-12-10T00:11:58.575Z,3.77
2023-12-10T00:14:27.136Z,3.77
2023-12-10T00:16:55.698Z,3.60
2023-12-10T00:19:23.982Z,3.23
2023-12-10T00:21:53.617Z,3.67
2023-12-10T00:24:23.203Z,3.27
2023-12-10T00:26:51.652Z,3.80
2023-12-10T00:29:19.817Z,3.47
2023-12-10T00:31:48.934Z,3.83
2023-12-10T00:34:17.191Z,3.57
2023-12-10T00:36:45.415Z,3.70
2023-12-10T00:39:15.021Z,3.70
2023-12-10T00:41:43.243Z,3.40
2023-12-10T00:44:11.374Z,3.70
2023-12-10T00:46:39.526Z,3.53
2023-12-10T00:49:07.814Z,3.40
2023-12-10T00:51:36.079Z,3.40
2023-12-10T00:54:06.083Z,3.47
2023-12-10T00:56:36.997Z,3.50
2023-12-10T00:59:05.150Z,3.60
2023-12-10T01:01:33.337Z,3.17
2023-12-10T01:04:01.619Z,3.63
2023-12-10T01:06:29.776Z,3.87
2023-12-10T01:08:57.956Z,3.30
2023-12-10T01:11:26.416Z,3.37
2023-12-10T01:13:55.943Z,3.40
2023-12-10T01:16:24.212Z,3.37
2023-12-10T01:18:52.419Z,3.73
2023-12-10T01:21:20.619Z,3.50
2023-12-10T01:23:50.607Z,3.80
2023-12-10T01:26:18.880Z,3.33
2023-12-10T01:28:47.001Z,3.87
2023-12-10T01:31:16.506Z,4.13
2023-12-10T01:33:44.858Z,4.00
2023-12-10T01:36:23.746Z,4.53
2023-12-10T01:38:52.106Z,4.97
2023-12-10T01:41:20.785Z,4.90
2023-12-10T01:43:48.981Z,5.80
2023-12-10T01:46:18.682Z,6.10
2023-12-10T01:48:51.391Z,5.77
2023-12-10T01:51:20.085Z,6.80
2023-12-10T01:53:48.716Z,6.50
2023-12-10T01:56:17.860Z,7.00
2023-12-10T01:58:46.216Z,6.87
2023-12-10T02:01:15.136Z,7.50
2023-12-10T02:03:45.137Z,7.50
2023-12-10T02:06:13.386Z,7.83
2023-12-10T02:08:42.239Z,8.57
2023-12-10T02:11:10.455Z,9.13
2023-12-10T02:13:39.393Z,8.90
2023-12-10T02:16:09.332Z,9.27
2023-12-10T02:18:37.764Z,9.27
2023-12-10T02:21:07.990Z,9.60
2023-12-10T02:23:48.069Z,9.80
2023-12-10T02:26:17.734Z,9.93
2023-12-10T02:28:46.120Z,9.60
2023-12-10T02:31:14.193Z,10.33
2023-12-10T02:33:42.565Z,11.70
2023-12-10T02:36:11.063Z,11.33
2023-12-10T02:38:39.188Z,10.97
2023-12-10T02:41:07.673Z,11.13
2023-12-10T02:43:37.176Z,11.63
2023-12-10T02:46:05.481Z,11.57
2023-12-10T02:48:33.678Z,10.47
2023-12-10T02:51:01.846Z,11.27
2023-12-10T02:53:29.902Z,11.83
2023-12-10T02:55:58.777Z,11.57
2023-12-10T02:58:27.593Z,11.83
2023-12-10T03:00:57.370Z,12.07
2023-12-10T03:03:25.714Z,11.87
2023-12-10T03:05:53.919Z,11.07
2023-12-10T03:08:22.018Z,12.50
2023-12-10T03:10:50.152Z,12.00
2023-12-10T03:13:18.226Z,11.27
2023-12-10T03:15:46.462Z,12.07
2023-12-10T03:18:16.104Z,10.67
2023-12-10T03:20:44.260Z,10.97
2023-12-10T03:23:12.376Z,10.57
2023-12-10T03:25:40.476Z,9.67
2023-12-10T03:28:08.618Z,9.80
2023-12-10T03:30:36.779Z,9.93
2023-12-10T03:33:05.303Z,9.73
2023-12-10T03:35:34.861Z,9.33
2023-12-10T03:38:02.952Z,9.33
2023-12-10T03:40:31.069Z,8.37
2023-12-10T03:42:59.425Z,8.80
2023-12-10T03:45:27.803Z,8.77
2023-12-10T03:47:55.972Z,8.33
2023-12-10T03:50:24.474Z,8.47
2023-12-10T03:52:54.043Z,7.47
2023-12-10T03:55:22.174Z,7.40
2023-12-10T03:57:51.767Z,7.00
2023-12-10T04:00:20.897Z,7.03
2023-12-10T04:02:49.031Z,7.40
2023-12-10T04:05:17.270Z,7.13
2023-12-10T04:07:45.423Z,7.13
2023-12-10T04:10:14.897Z,6.13
2023-12-10T04:12:43.152Z,6.43
2023-12-10T04:15:11.925Z,6.63
2023-12-10T04:17:40.125Z,6.43
2023-12-10T04:20:09.858Z,5.73
2023-12-10T04:22:37.998Z,6.23
2023-12-10T04:25:06.974Z,7.00
2023-12-10T04:27:36.849Z,6.43
2023-12-10T04:30:05.522Z,6.83
2023-12-10T04:32:33.697Z,5.97
2023-12-10T04:35:01.856Z,6.03
2023-12-10T04:37:29.949Z,6.40
2023-12-10T04:39:59.015Z,6.70
2023-12-10T04:42:27.497Z,5.67
2023-12-10T04:44:57.757Z,6.77
2023-12-10T04:47:25.834Z,6.97
2023-12-10T04:49:55.814Z,6.30
2023-12-10T04:52:24.059Z,6.67
2023-12-10T04:54:52.264Z,5.47
2023-12-10T04:57:20.381Z,6.47
2023-12-10T04:59:48.519Z,6.13
2023-12-10T05:02:17.987Z,6.10
2023-12-10T05:04:46.332Z,5.73
2023-12-10T05:07:14.422Z,7.40
2023-12-10T05:09:42.931Z,7.90
2023-12-10T05:12:11.134Z,5.43
2023-12-10T05:14:39.217Z,5.50
2023-12-10T05:17:07.293Z,6.00
2023-12-10T05:19:36.831Z,5.57
2023-12-10T05:22:05.330Z,5.60
2023-12-10T05:24:33.562Z,5.90
2023-12-10T05:27:01.700Z,6.13
2023-12-10T05:29:29.815Z,6.50
2023-12-10T05:31:57.936Z,6.60
2023-12-10T05:34:25.194Z,6.00
2023-12-10T05:36:54.783Z,6.47
2023-12-10T05:39:23.288Z,6.30
2023-12-10T05:41:51.437Z,5.63
2023-12-10T05:44:19.550Z,5.50
2023-12-10T05:46:47.660Z,5.30
2023-12-10T05:49:15.944Z,6.27
2023-12-10T05:51:44.150Z,5.67
2023-12-10T05:54:14.167Z,5.40
2023-12-10T05:56:42.534Z,6.03
2023-12-10T05:59:10.641Z,6.10
2023-12-10T06:01:38.767Z,6.10
2023-12-10T06:04:07.130Z,6.17
2023-12-10T06:06:35.374Z,5.73
2023-12-10T06:09:03.700Z,5.60
2023-12-10T06:11:33.402Z,5.77
2023-12-10T06:14:01.495Z,5.73
2023-12-10T06:16:29.571Z,5.67
2023-12-10T06:18:57.729Z,5.07
2023-12-10T06:21:25.967Z,5.40
2023-12-10T06:23:54.643Z,5.47
2023-12-10T06:26:22.830Z,5.07
2023-12-10T06:28:52.294Z,5.13
2023-12-10T06:31:20.549Z,5.27
2023-12-10T06:33:48.748Z,5.27
2023-12-10T06:36:16.883Z,5.27
2023-12-10T06:38:44.977Z,4.83
2023-12-10T06:41:13.092Z,4.70
2023-12-10T06:43:41.301Z,5.37
2023-12-10T06:46:10.835Z,5.07
2023-12-10T06:48:39.095Z,5.00
2023-12-10T06:51:07.937Z,5.30
2023-12-10T06:53:37.213Z,5.60
2023-12-10T06:56:05.841Z,4.70
2023-12-10T06:58:33.942Z,4.83
2023-12-10T07:01:02.101Z,5.40
2023-12-10T07:03:31.767Z,4.83
2023-12-10T07:06:04.567Z,5.43
2023-12-10T07:08:32.826Z,5.10
2023-12-10T07:11:00.988Z,5.10
2023-12-10T07:13:29.146Z,5.00
2023-12-10T07:15:57.378Z,5.60
2023-12-10T07:18:25.718Z,4.57
2023-12-10T07:20:55.361Z,4.87
2023-12-10T07:23:23.476Z,5.13
2023-12-10T07:25:51.544Z,5.10
2023-12-10T07:28:19.607Z,4.63
2023-12-10T07:30:47.914Z,4.70
2023-12-10T07:33:16.173Z,5.33
2023-12-10T07:35:45.891Z,4.97
2023-12-10T07:38:15.608Z,5.13
2023-12-10T07:40:43.797Z,4.83
2023-12-10T07:43:11.943Z,4.90
2023-12-10T07:45:40.155Z,4.90
2023-12-10T07:48:08.597Z,4.50
2023-12-10T07:50:36.772Z,4.87
2023-12-10T07:53:06.349Z,6.67
2023-12-10T07:55:36.166Z,7.00
2023-12-10T07:58:04.526Z,5.87
2023-12-10T08:00:32.903Z,6.77
2023-12-10T08:03:01.111Z,6.87
2023-12-10T08:05:29.542Z,5.80
2023-12-10T08:07:58.091Z,6.97
2023-12-10T08:10:26.178Z,5.33
2023-12-10T08:12:55.963Z,4.87
2023-12-10T08:15:24.873Z,5.70
2023-12-10T08:17:53.084Z,4.97
2023-12-10T08:20:21.220Z,4.13
2023-12-10T08:22:49.803Z,3.90
2023-12-10T08:25:17.928Z,4.47
2023-12-10T08:27:46.284Z,3.90
2023-12-10T08:30:16.205Z,3.70
2023-12-10T08:32:44.373Z,4.10
2023-12-10T08:35:12.500Z,3.83
2023-12-10T08:37:41.359Z,3.70
2023-12-10T08:40:10.085Z,3.63
2023-12-10T08:42:38.157Z,3.80
2023-12-10T08:45:07.162Z,3.70
2023-12-10T08:47:36.720Z,3.70
2023-12-10T08:50:05.133Z,5.43
2023-12-10T08:52:33.831Z,6.60
2023-12-10T08:55:02.753Z,6.63
2023-12-10T08:57:31.008Z,6.80
2023-12-10T09:00:02.017Z,5.10
2023-12-10T09:02:31.038Z,4.50
2023-12-10T09:05:00.830Z,3.30
2023-12-10T09:07:29.052Z,3.70
2023-12-10T09:10:08.535Z,3.60
2023-12-10T09:12:40.424Z,3.47
2023-12-10T09:15:10.753Z,3.93
2023-12-10T09:17:38.993Z,2.93
2023-12-10T09:20:11.071Z,3.63
2023-12-10T09:22:39.265Z,3.50
2023-12-10T09:25:07.663Z,3.73
2023-12-10T09:27:35.899Z,4.23
2023-12-10T09:30:04.194Z,3.40
2023-12-10T09:32:32.673Z,3.57
2023-12-10T09:35:01.879Z,3.53
2023-12-10T09:37:31.481Z,4.13
2023-12-10T09:39:59.574Z,3.50
2023-12-10T09:42:28.685Z,3.43
2023-12-10T09:44:57.184Z,3.83
2023-12-10T09:47:27.786Z,3.33
2023-12-10T09:49:58.776Z,3.20
2023-12-10T09:52:27.047Z,3.67
2023-12-10T09:54:57.198Z,3.50
2023-12-10T09:57:27.962Z,3.97
2023-12-10T09:59:56.299Z,4.67
2023-12-10T10:02:32.499Z,3.67
2023-12-10T10:05:00.713Z,4.23
2023-12-10T10:07:30.935Z,4.60
2023-12-10T10:10:00.793Z,4.67
2023-12-10T10:12:31.983Z,4.30
2023-12-10T10:15:01.754Z,5.13
2023-12-10T10:17:31.614Z,5.63
2023-12-10T10:20:01.219Z,5.07
2023-12-10T10:22:29.892Z,5.10
2023-12-10T10:24:58.063Z,5.37
2023-12-10T10:27:28.459Z,5.73
2023-12-10T10:29:56.882Z,5.47
2023-12-10T10:32:25.589Z,5.53
2023-12-10T10:34:53.840Z,5.23
2023-12-10T10:37:21.971Z,5.30
2023-12-10T10:39:51.233Z,5.23
2023-12-10T10:42:20.108Z,5.63
2023-12-10T10:44:49.663Z,6.20
2023-12-10T10:47:19.744Z,6.67
2023-12-10T10:50:19.539Z,7.50
2023-12-10T10:52:45.026Z,6.40
2023-12-10T10:55:14.493Z,6.67
2023-12-10T10:57:43.030Z,7.10
2023-12-10T11:00:38.398Z,6.90
2023-12-10T11:03:09.674Z,6.10
2023-12-10T11:05:38.390Z,6.10
2023-12-10T11:08:07.904Z,5.80
2023-12-10T11:10:36.505Z,5.90
2023-12-10T11:13:04.753Z,6.40
2023-12-10T11:15:33.301Z,5.57
2023-12-10T11:18:04.488Z,6.30
2023-12-10T11:20:34.683Z,5.17
2023-12-10T11:23:04.145Z,5.83
2023-12-10T11:25:32.748Z,5.47
2023-12-10T11:28:11.548Z,5.47
2023-12-10T11:30:40.693Z,5.23
2023-12-10T11:33:11.045Z,5.60
2023-12-10T11:35:39.554Z,5.50
2023-12-10T11:38:07.976Z,5.53
2023-12-10T11:40:36.400Z,6.07
2023-12-10T11:43:05.747Z,5.87
2023-12-10T11:45:34.569Z,5.97
2023-12-10T11:48:04.649Z,6.50
2023-12-10T11:50:35.244Z,6.50
2023-12-10T11:53:03.721Z,7.00
2023-12-10T11:55:32.910Z,6.47
2023-12-10T11:58:01.541Z,6.10
2023-12-10T12:00:29.741Z,6.73
2023-12-10T12:02:57.858Z,6.67
2023-12-10T12:05:25.938Z,6.83
2023-12-10T12:07:56.197Z,6.77
2023-12-10T12:10:24.537Z,6.77
2023-12-10T12:12:52.696Z,6.53
2023-12-10T12:15:21.616Z,6.60
2023-12-10T12:17:49.781Z,6.07
2023-12-10T12:20:19.748Z,5.97
2023-12-10T12:22:49.589Z,5.37
2023-12-10T12:25:19.760Z,5.00
2023-12-10T12:27:48.169Z,4.23
2023-12-10T12:30:19.755Z,3.73
2023-12-10T12:32:48.228Z,3.80
2023-12-10T12:35:16.400Z,3.97
2023-12-10T12:37:44.508Z,4.10
2023-12-10T12:40:14.554Z,3.47
2023-12-10T12:42:44.783Z,3.80
2023-12-10T12:45:12.977Z,3.93
2023-12-10T12:47:41.117Z,3.50
2023-12-10T12:50:09.845Z,3.33
2023-12-10T12:52:38.746Z,3.73
2023-12-10T12:55:07.902Z,4.50
2023-12-10T12:57:36.070Z,4.67
2023-12-10T13:00:06.723Z,4.97
2023-12-10T13:02:34.905Z,4.93
2023-12-10T13:05:03.129Z,4.57
2023-12-10T13:07:31.598Z,4.50
2023-12-10T13:10:03.277Z,3.90
2023-12-10T13:12:33.088Z,4.57
2023-12-10T13:15:01.428Z,5.07
2023-12-10T13:17:31.463Z,4.97
2023-12-10T13:19:59.869Z,4.80
2023-12-10T13:22:28.293Z,4.40
2023-12-10T13:24:56.437Z,5.13
2023-12-10T13:27:24.842Z,5.03
2023-12-10T13:29:53.081Z,4.83
2023-12-10T13:32:21.202Z,5.40
2023-12-10T13:34:51.210Z,4.83
2023-12-10T13:37:19.334Z,4.00
2023-12-10T13:39:47.546Z,4.77
2023-12-10T13:42:16.039Z,4.00
2023-12-10T13:44:44.466Z,3.80
2023-12-10T13:47:14.658Z,4.47
2023-12-10T13:49:43.448Z,3.83
2023-12-10T13:52:13.167Z,2.77
2023-12-10T13:54:42.076Z,2.40
2023-12-10T13:57:10.179Z,2.43
2023-12-10T13:59:38.279Z,1.80
2023-12-10T14:02:08.622Z,1.60
2023-12-10T14:04:37.217Z,1.87
2023-12-10T14:07:05.659Z,1.83
2023-12-10T14:09:35.484Z,1.83
2023-12-10T14:12:03.751Z,1.73
2023-12-10T14:14:31.855Z,1.40
2023-12-10T14:17:00.098Z,1.23
2023-12-10T14:19:29.480Z,1.40
2023-12-10T14:21:58.023Z,1.10
2023-12-10T14:24:26.237Z,1.60
2023-12-10T14:26:55.785Z,2.20
2023-12-10T14:29:23.904Z,1.87
2023-12-10T14:31:52.056Z,2.40
2023-12-10T14:34:20.221Z,2.40
2023-12-10T14:36:48.496Z,2.53
2023-12-10T14:39:16.669Z,2.83
2023-12-10T14:41:45.476Z,2.30
2023-12-10T14:44:14.952Z,3.07
2023-12-10T14:46:43.777Z,2.50
2023-12-10T14:49:12.084Z,3.00
2023-12-10T14:51:40.395Z,3.10
2023-12-10T14:54:08.510Z,2.80
2023-12-10T14:56:37.050Z,3.07
2023-12-10T14:59:05.312Z,2.77
2023-12-10T15:01:35.449Z,2.47
2023-12-10T15:04:04.033Z,2.40
2023-12-10T15:06:32.850Z,2.43
2023-12-10T15:09:01.208Z,2.30
2023-12-10T15:11:32.041Z,3.10
2023-12-10T15:14:00.204Z,2.63
2023-12-10T15:16:28.310Z,2.10
2023-12-10T15:18:57.926Z,2.63
2023-12-10T15:21:26.866Z,2.90
2023-12-10T15:23:55.787Z,2.30
2023-12-10T15:26:23.983Z,2.00
2023-12-10T15:28:52.146Z,2.80
2023-12-10T15:31:22.533Z,2.27
2023-12-10T15:33:50.784Z,2.87
2023-12-10T15:36:23.043Z,2.70
2023-12-10T15:38:51.295Z,2.67
2023-12-10T15:41:19.538Z,2.53
2023-12-10T15:43:47.639Z,2.63
2023-12-10T15:46:16.025Z,2.30
2023-12-10T15:48:45.040Z,2.40
2023-12-10T15:51:13.248Z,2.80
2023-12-10T15:53:42.723Z,2.53
2023-12-10T15:56:11.413Z,2.87
2023-12-10T15:58:39.526Z,3.03
2023-12-10T16:01:07.926Z,2.63
2023-12-10T16:03:36.234Z,2.53
2023-12-10T16:06:04.909Z,3.00
2023-12-10T16:08:33.145Z,3.17
2023-12-10T16:11:02.681Z,4.00
2023-12-10T16:13:30.900Z,4.27
2023-12-10T16:15:59.050Z,4.50
2023-12-10T16:18:27.629Z,4.33
2023-12-10T16:20:55.834Z,4.27
2023-12-10T16:23:24.463Z,4.43
2023-12-10T16:25:52.559Z,4.83
2023-12-10T16:28:22.133Z,4.43
2023-12-10T16:30:50.304Z,4.27
2023-12-10T16:33:18.475Z,4.47
2023-12-10T16:35:46.703Z,4.10
2023-12-10T16:38:14.802Z,4.20
2023-12-10T16:40:42.904Z,4.17
2023-12-10T16:43:11.090Z,3.87
2023-12-10T16:45:41.043Z,3.90
2023-12-10T16:48:09.325Z,4.23
2023-12-10T16:50:37.493Z,4.30
2023-12-10T16:53:05.716Z,4.17
2023-12-10T16:55:33.837Z,5.07
2023-12-10T16:58:01.966Z,4.07
2023-12-10T17:00:30.542Z,4.43
2023-12-10T17:03:00.048Z,5.03
2023-12-10T17:05:28.272Z,4.30
2023-12-10T17:07:56.555Z,4.43
2023-12-10T17:10:25.305Z,4.30
2023-12-10T17:12:54.170Z,4.30
2023-12-10T17:15:22.375Z,4.70
2023-12-10T17:17:50.549Z,3.93
2023-12-10T17:20:20.397Z,5.17
2023-12-10T17:22:49.343Z,4.37
2023-12-10T17:25:17.651Z,5.07
2023-12-10T17:27:45.805Z,5.47
2023-12-10T17:30:14.777Z,4.60
2023-12-10T17:32:42.966Z,5.07
2023-12-10T17:35:11.175Z,4.43
2023-12-10T17:37:40.638Z,5.20
2023-12-10T17:40:12.119Z,4.93
2023-12-10T17:42:40.410Z,5.47
2023-12-10T17:45:09.692Z,5.03
2023-12-10T17:47:37.876Z,4.80
2023-12-10T17:50:07.744Z,4.70
2023-12-10T17:52:35.936Z,5.03
2023-12-10T17:55:07.122Z,5.07
2023-12-10T17:57:35.694Z,4.50
2023-12-10T18:00:04.048Z,4.80
2023-12-10T18:02:32.161Z,4.27
2023-12-10T18:05:00.495Z,4.67
2023-12-10T18:07:28.697Z,4.47
2023-12-10T18:09:57.048Z,4.87
2023-12-10T18:12:26.572Z,4.93
2023-12-10T18:14:54.726Z,5.00
2023-12-10T18:17:24.261Z,4.80
2023-12-10T18:19:52.570Z,5.03
2023-12-10T18:22:20.735Z,4.93
2023-12-10T18:24:48.837Z,4.60
2023-12-10T18:27:17.010Z,4.93
2023-12-10T18:29:46.464Z,5.10
2023-12-10T18:32:14.558Z,5.03
2023-12-10T18:34:43.796Z,5.80
2023-12-10T18:37:12.099Z,4.93
2023-12-10T18:39:42.511Z,5.07
2023-12-10T18:42:11.636Z,4.60
2023-12-10T18:44:40.149Z,5.00
2023-12-10T18:47:09.779Z,4.90
2023-12-10T18:49:38.036Z,4.90
2023-12-10T18:52:07.844Z,5.40
2023-12-10T18:54:36.166Z,5.20
2023-12-10T18:57:04.378Z,4.73
2023-12-10T18:59:32.544Z,4.83
2023-12-10T19:02:01.221Z,6.27
2023-12-10T19:04:30.825Z,6.47
2023-12-10T19:06:59.409Z,6.63
2023-12-10T19:09:28.095Z,6.53
2023-12-10T19:11:56.224Z,6.80
2023-12-10T19:14:24.373Z,6.90
2023-12-10T19:16:52.839Z,6.53
2023-12-10T19:19:21.053Z,6.83
2023-12-10T19:21:51.125Z,6.20
2023-12-10T19:24:19.420Z,7.27
2023-12-10T19:26:47.510Z,7.07
2023-12-10T19:29:15.703Z,6.43
2023-12-10T19:31:44.099Z,6.30
2023-12-10T19:34:12.358Z,6.73
2023-12-10T19:36:41.233Z,6.00
2023-12-10T19:39:10.759Z,6.27
2023-12-10T19:41:39.065Z,5.83
2023-12-10T19:44:07.283Z,6.37
2023-12-10T19:46:35.500Z,5.33
2023-12-10T19:49:04.189Z,6.73
2023-12-10T19:51:32.506Z,6.23
2023-12-10T19:54:00.808Z,5.00
2023-12-10T19:56:30.494Z,4.90
2023-12-10T19:58:58.620Z,5.30
2023-12-10T20:01:27.548Z,4.93
2023-12-10T20:03:56.334Z,6.07
2023-12-10T20:06:24.924Z,6.03
2023-12-10T20:08:53.032Z,5.60
2023-12-10T20:11:21.178Z,5.43
2023-12-10T20:13:50.805Z,5.10
2023-12-10T20:16:19.775Z,5.70
2023-12-10T20:18:48.129Z,5.60
2023-12-10T20:21:17.327Z,6.10
2023-12-10T20:23:45.506Z,6.40
2023-12-10T20:26:21.289Z,7.23
2023-12-10T20:28:54.406Z,6.77
2023-12-10T20:31:22.508Z,8.17
2023-12-10T20:33:50.777Z,6.50
2023-12-10T20:36:19.016Z,6.70
2023-12-10T20:38:47.251Z,7.13
2023-12-10T20:41:15.396Z,6.50
2023-12-10T20:43:43.527Z,6.37
2023-12-10T20:46:13.038Z,6.13
2023-12-10T20:48:41.280Z,5.83
2023-12-10T20:51:09.515Z,6.40
2023-12-10T20:53:37.562Z,6.63
2023-12-10T20:56:06.325Z,6.50
2023-12-10T20:58:34.379Z,7.30
2023-12-10T21:01:02.523Z,7.17
2023-12-10T21:03:32.081Z,6.60
2023-12-10T21:06:00.347Z,7.33
2023-12-10T21:08:28.500Z,7.50
2023-12-10T21:10:57.022Z,7.40
2023-12-10T21:13:25.102Z,7.50
2023-12-10T21:15:53.240Z,7.73
2023-12-10T21:18:22.819Z,8.23
2023-12-10T21:20:52.391Z,6.80
2023-12-10T21:23:20.460Z,7.73
2023-12-10T21:25:48.897Z,7.00
2023-12-10T21:28:17.010Z,6.63
2023-12-10T21:30:45.395Z,6.93
2023-12-10T21:33:13.633Z,5.93
2023-12-10T21:35:41.780Z,6.57
2023-12-10T21:38:11.245Z,5.83
2023-12-10T21:40:39.317Z,6.30
2023-12-10T21:43:07.424Z,6.90
2023-12-10T21:45:35.555Z,6.13
2023-12-10T21:48:03.825Z,6.83
2023-12-10T21:50:32.008Z,6.60
2023-12-10T21:53:00.099Z,6.50
2023-12-10T21:55:29.581Z,5.50
2023-12-10T21:57:58.113Z,5.37
2023-12-10T22:00:26.331Z,5.80
2023-12-10T22:02:54.558Z,5.87
2023-12-10T22:05:22.755Z,5.17
2023-12-10T22:07:50.883Z,6.37
2023-12-10T22:10:19.239Z,6.87
2023-12-10T22:12:48.771Z,6.80
2023-12-10T22:15:17.072Z,6.47
2023-12-10T22:17:45.310Z,7.67
2023-12-10T22:20:14.501Z,7.37
2023-12-10T22:22:44.842Z,6.53
2023-12-10T22:25:14.083Z,7.10
2023-12-10T22:27:43.711Z,6.40
2023-12-10T22:30:14.302Z,6.67
2023-12-10T22:32:42.503Z,6.13
2023-12-10T22:35:12.819Z,6.40
2023-12-10T22:37:42.224Z,7.70
2023-12-10T22:40:11.285Z,7.50
2023-12-10T22:42:39.516Z,7.27
2023-12-10T22:45:08.050Z,7.57
2023-12-10T22:47:37.597Z,6.50
2023-12-10T22:50:06.804Z,6.73
2023-12-10T22:52:35.166Z,7.10
2023-12-10T22:55:03.312Z,6.57
2023-12-10T22:57:31.843Z,7.30
2023-12-10T23:00:00.199Z,7.13
2023-12-10T23:02:28.325Z,7.23
2023-12-10T23:05:01.076Z,6.53
2023-12-10T23:07:29.480Z,7.03
2023-12-10T23:09:57.763Z,7.17
2023-12-10T23:12:25.889Z,7.60
2023-12-10T23:14:53.997Z,7.50
2023-12-10T23:17:22.223Z,6.07
2023-12-10T23:19:50.734Z,6.77
2023-12-10T23:22:20.206Z,6.60
2023-12-10T23:24:49.488Z,6.40
2023-12-10T23:27:17.694Z,5.83
2023-12-10T23:29:45.789Z,5.27
2023-12-10T23:32:13.918Z,6.30
2023-12-10T23:34:42.086Z,6.47
2023-12-10T23:37:10.233Z,6.40
2023-12-10T23:39:39.696Z,5.70
2023-12-10T23:42:08.407Z,5.50
2023-12-10T23:44:36.498Z,6.00
2023-12-10T23:47:04.832Z,5.07
2023-12-10T23:49:33.053Z,6.00
2023-12-10T23:52:01.578Z,5.53
2023-12-10T23:54:29.991Z,6.37
2023-12-10T23:56:59.484Z,5.23
2023-12-10T23:59:27.576Z,4.87
